Overview Statistics Trail Chart Weather Telemetry Raw packets
 

This is the latest recevied weather packets stored in our database for station/object IU5JAE-13. If no packets are shown the sender has not sent any weather packets the latest 10 day(s).

<< 30 31 32 33 34 35 36 >>
Time Temp. Humidity Pressure Rain* Wind** Luminosity Snow
1788253818 25.56° C 77% 1020 hPa 0 mm - 522 W/m² -
1788253235 25.56° C 77% 1019.9 hPa 0 mm - 503 W/m² -
1788252641 25.56° C 77% 1019.8 hPa 0 mm - 487 W/m² -
1788252031 25.56° C 76% 1019.8 hPa 0 mm - 444 W/m² -
1788251428 26.11° C 75% 1019.9 hPa 0 mm - 427 W/m² -
1788250826 25° C 77% 1019.8 hPa 0 mm - 397 W/m² -
1788250223 23.89° C 81% 1019.6 hPa 0 mm - 376 W/m² -
1788249621 23.89° C 79% 1019.5 hPa 0 mm - 352 W/m² -
1788249019 23.33° C 81% 1019.4 hPa 0 mm - 325 W/m² -
1788248416 22.78° C 83% 1019.4 hPa 0 mm - 333 W/m² -
1788247834 22.78° C 82% 1019.4 hPa 0 mm - 196 W/m² -
1788247232 23.33° C 81% 1019.4 hPa 0 mm - 166 W/m² -
1788246629 23.33° C 82% 1019.2 hPa 0 mm - 156 W/m² -
1788246027 23.33° C 82% 1019.2 hPa 0 mm - 129 W/m² -
1788245424 22.78° C 82% 1019.3 hPa 0 mm - 106 W/m² -
1788244822 22.22° C 86% 1019.3 hPa 0 mm - 95 W/m² -
1788244224 20.56° C 92% 1019.2 hPa 0 mm - 78 W/m² -
1788243617 20° C 94% 1019.3 hPa 0 mm - 60 W/m² -
1788243035 19.44° C 94% 1019.3 hPa 0 mm - 57 W/m² -
1788242432 19.44° C 94% 1019.3 hPa 0 mm - 46 W/m² -
1788241830 19.44° C 94% 1019.2 hPa 0 mm - 32 W/m² -
1788241227 19.44° C 94% 1019.2 hPa 0 mm - 44 W/m² -
1788240625 19.44° C 94% 1019.2 hPa 0 mm - 31 W/m² -
1788240022 19.44° C 95% 1019 hPa 0 mm - 21 W/m² -
1788239420 19.44° C 96% 1019 hPa 0 mm - 15 W/m² -

* Rain latest hour (hover to see other rain measurements)
** Current wind speed in m/s (hover to see current wind gust speed)